createdAt,value
2018-08-22T00:00:57.549Z,1.50
2018-08-22T00:01:57.519Z,1.40
2018-08-22T00:02:57.498Z,1.70
2018-08-22T00:03:57.479Z,4.00
2018-08-22T00:04:57.463Z,1.20
2018-08-22T00:05:57.423Z,1.90
2018-08-22T00:06:57.406Z,2.40
2018-08-22T00:07:57.379Z,1.90
2018-08-22T00:08:57.413Z,1.30
2018-08-22T00:09:57.344Z,2.10
2018-08-22T00:10:57.309Z,2.90
2018-08-22T00:11:57.289Z,3.00
2018-08-22T00:12:57.267Z,1.90
2018-08-22T00:13:57.238Z,2.50
2018-08-22T00:14:57.212Z,1.30
2018-08-22T00:15:57.218Z,2.10
2018-08-22T00:16:57.187Z,1.90
2018-08-22T00:17:57.152Z,1.50
2018-08-22T00:18:57.129Z,1.00
2018-08-22T00:19:57.100Z,1.20
2018-08-22T00:20:57.085Z,1.30
2018-08-22T00:21:57.052Z,1.30
2018-08-22T00:22:57.029Z,1.90
2018-08-22T00:23:57.007Z,1.40
2018-08-22T00:24:56.981Z,1.40
2018-08-22T00:25:56.965Z,1.30
2018-08-22T00:26:56.990Z,1.30
2018-08-22T00:27:56.909Z,1.50
2018-08-22T00:28:56.896Z,2.00
2018-08-22T00:29:56.864Z,1.20
2018-08-22T00:30:56.838Z,1.40
2018-08-22T00:31:56.822Z,1.90
2018-08-22T00:32:58.181Z,2.40
2018-08-22T00:33:58.174Z,1.30
2018-08-22T00:34:57.173Z,1.10
2018-08-22T00:35:56.721Z,1.20
2018-08-22T00:36:56.703Z,1.50
2018-08-22T00:37:57.359Z,1.20
2018-08-22T00:38:56.656Z,1.10
2018-08-22T00:39:56.632Z,1.70
2018-08-22T00:40:56.606Z,1.50
2018-08-22T00:41:56.583Z,2.00
2018-08-22T00:42:56.569Z,18.60
2018-08-22T00:43:56.533Z,5.60
2018-08-22T00:44:56.518Z,23.50
2018-08-22T00:45:56.491Z,29.10
2018-08-22T00:46:56.463Z,52.90
2018-08-22T00:47:56.443Z,61.60
2018-08-22T00:48:56.428Z,36.60
2018-08-22T00:49:56.390Z,51.40
2018-08-22T00:50:56.369Z,35.80
2018-08-22T00:51:56.344Z,39.40
2018-08-22T00:52:56.328Z,56.40
2018-08-22T00:53:56.312Z,74.00
2018-08-22T00:54:56.273Z,49.80
2018-08-22T00:55:56.257Z,70.20
2018-08-22T00:56:56.231Z,13.00
2018-08-22T00:57:56.207Z,13.60
2018-08-22T00:58:56.179Z,10.20
2018-08-22T00:59:56.162Z,14.90
2018-08-22T01:00:56.132Z,22.20
2018-08-22T01:01:56.110Z,12.50
2018-08-22T01:02:56.088Z,12.50
2018-08-22T01:03:56.060Z,11.20
2018-08-22T01:04:56.040Z,15.00
2018-08-22T01:05:56.015Z,13.00
2018-08-22T01:06:55.992Z,11.60
2018-08-22T01:07:55.968Z,7.40
2018-08-22T01:08:55.947Z,4.20
2018-08-22T01:09:55.928Z,9.70
2018-08-22T01:10:55.900Z,12.70
2018-08-22T01:11:55.869Z,10.60
2018-08-22T01:12:55.847Z,9.60
2018-08-22T01:13:55.823Z,9.50
2018-08-22T01:14:55.802Z,11.60
2018-08-22T01:15:55.775Z,12.60
2018-08-22T01:16:55.752Z,11.20
2018-08-22T01:17:55.733Z,11.70
2018-08-22T01:18:55.730Z,8.40
2018-08-22T01:19:55.691Z,5.60
2018-08-22T01:20:55.663Z,8.90
2018-08-22T01:21:55.641Z,10.00
2018-08-22T01:22:55.621Z,8.80
2018-08-22T01:23:55.586Z,6.60
2018-08-22T01:24:55.570Z,7.80
2018-08-22T01:25:55.544Z,8.60
2018-08-22T01:26:55.518Z,9.00
2018-08-22T01:27:55.496Z,7.00
2018-08-22T01:28:55.473Z,9.20
2018-08-22T01:29:55.445Z,8.90
2018-08-22T01:30:55.426Z,8.20
2018-08-22T01:31:55.400Z,6.20
2018-08-22T01:32:55.407Z,5.30
2018-08-22T01:33:55.355Z,7.30
2018-08-22T01:34:55.325Z,2.40
2018-08-22T01:35:55.320Z,2.20
2018-08-22T01:36:55.292Z,4.00
2018-08-22T01:37:55.253Z,6.50
2018-08-22T01:38:55.244Z,7.10
2018-08-22T01:39:55.212Z,5.30
2018-08-22T01:40:55.185Z,5.30
2018-08-22T01:41:55.171Z,6.20
2018-08-22T01:42:55.170Z,4.70
2018-08-22T01:43:55.115Z,4.30
2018-08-22T01:44:55.093Z,3.50
2018-08-22T01:45:55.089Z,5.40
2018-08-22T01:46:55.048Z,4.80
2018-08-22T01:47:55.022Z,5.10
2018-08-22T01:48:55.010Z,4.50
2018-08-22T01:49:54.970Z,3.10
2018-08-22T01:50:54.954Z,3.40
2018-08-22T01:51:54.927Z,7.00
2018-08-22T01:52:54.902Z,5.90
2018-08-22T01:53:54.880Z,2.60
2018-08-22T01:54:54.857Z,4.90
2018-08-22T01:55:54.830Z,2.20
2018-08-22T01:56:54.811Z,2.60
2018-08-22T01:57:54.779Z,7.00
2018-08-22T01:58:54.840Z,2.30
2018-08-22T01:59:54.734Z,2.70
2018-08-22T02:00:54.712Z,2.80
2018-08-22T02:01:54.687Z,2.30
2018-08-22T02:02:54.664Z,2.30
2018-08-22T02:03:54.642Z,3.40
2018-08-22T02:04:54.617Z,2.70
2018-08-22T02:05:54.595Z,1.60
2018-08-22T02:06:54.575Z,3.20
2018-08-22T02:07:54.560Z,3.40
2018-08-22T02:08:54.528Z,1.50
2018-08-22T02:09:54.508Z,2.70
2018-08-22T02:10:54.480Z,1.40
2018-08-22T02:11:54.452Z,2.30
2018-08-22T02:12:54.431Z,2.80
2018-08-22T02:13:54.408Z,2.60
2018-08-22T02:14:54.384Z,1.80
2018-08-22T02:15:54.376Z,1.40
2018-08-22T02:16:54.339Z,1.70
2018-08-22T02:17:54.314Z,3.20
2018-08-22T02:18:54.303Z,2.00
2018-08-22T02:19:54.265Z,2.30
2018-08-22T02:20:54.240Z,1.60
2018-08-22T02:21:54.221Z,1.70
2018-08-22T02:22:54.201Z,2.30
2018-08-22T02:23:54.173Z,2.30
2018-08-22T02:24:54.150Z,2.70
2018-08-22T02:25:54.118Z,1.70
2018-08-22T02:26:54.099Z,4.20
2018-08-22T02:27:54.073Z,2.80
2018-08-22T02:28:54.066Z,1.50
2018-08-22T02:29:54.039Z,2.20
2018-08-22T02:30:54.011Z,1.90
2018-08-22T02:31:53.985Z,4.70
2018-08-22T02:32:53.956Z,2.10
2018-08-22T02:33:53.934Z,1.70
2018-08-22T02:34:53.910Z,1.50
2018-08-22T02:35:53.895Z,1.30
2018-08-22T02:36:53.864Z,4.10
2018-08-22T02:37:53.841Z,2.10
2018-08-22T02:38:53.818Z,2.20
2018-08-22T02:39:53.798Z,3.00
2018-08-22T02:40:53.777Z,2.70
2018-08-22T02:41:53.744Z,3.30
2018-08-22T02:42:53.725Z,2.60
2018-08-22T02:43:53.699Z,1.50
2018-08-22T02:44:53.673Z,2.50
2018-08-22T02:45:53.660Z,2.90
2018-08-22T02:46:53.630Z,1.70
2018-08-22T02:47:53.604Z,3.80
2018-08-22T02:48:53.589Z,1.70
2018-08-22T02:49:53.555Z,1.60
2018-08-22T02:50:53.537Z,1.60
2018-08-22T02:51:53.509Z,1.90
2018-08-22T02:52:53.488Z,1.30
2018-08-22T02:53:53.461Z,2.00
2018-08-22T02:54:53.443Z,1.50
2018-08-22T02:55:53.419Z,2.30
2018-08-22T02:56:53.391Z,1.50
2018-08-22T02:57:53.373Z,1.80
2018-08-22T02:58:53.348Z,1.50
2018-08-22T02:59:53.318Z,1.80
2018-08-22T03:00:53.298Z,2.50
2018-08-22T03:01:53.279Z,1.80
2018-08-22T03:02:53.248Z,1.90
2018-08-22T03:03:53.225Z,1.40
2018-08-22T03:04:53.200Z,1.60
2018-08-22T03:05:53.185Z,3.50
2018-08-22T03:06:53.160Z,1.20
2018-08-22T03:07:53.133Z,2.90
2018-08-22T03:08:53.112Z,1.50
2018-08-22T03:09:53.088Z,1.70
2018-08-22T03:10:53.057Z,1.70
2018-08-22T03:11:53.044Z,1.30
2018-08-22T03:12:53.011Z,1.70
2018-08-22T03:13:52.993Z,1.40
2018-08-22T03:14:52.967Z,2.80
2018-08-22T03:15:52.944Z,2.70
2018-08-22T03:16:52.920Z,2.30
2018-08-22T03:17:52.908Z,1.20
2018-08-22T03:18:52.869Z,1.30
2018-08-22T03:19:52.849Z,2.90
2018-08-22T03:20:52.826Z,2.60
2018-08-22T03:21:52.803Z,2.70
2018-08-22T03:22:52.781Z,1.60
2018-08-22T03:23:52.752Z,4.10
2018-08-22T03:24:52.727Z,2.20
2018-08-22T03:25:52.709Z,1.40
2018-08-22T03:26:52.680Z,1.50
2018-08-22T03:27:52.663Z,1.50
2018-08-22T03:28:52.643Z,1.40
2018-08-22T03:29:52.609Z,1.30
2018-08-22T03:30:52.596Z,2.80
2018-08-22T03:31:52.564Z,3.90
2018-08-22T03:32:52.566Z,1.40
2018-08-22T03:33:52.543Z,2.30
2018-08-22T03:34:52.498Z,1.40
2018-08-22T03:35:52.481Z,1.60
2018-08-22T03:36:52.448Z,1.40
2018-08-22T03:37:52.420Z,2.70
2018-08-22T03:38:52.395Z,1.70
2018-08-22T03:39:52.375Z,2.70
2018-08-22T03:40:52.354Z,3.10
2018-08-22T03:41:52.321Z,2.00
2018-08-22T03:42:52.302Z,1.20
2018-08-22T03:43:52.277Z,1.30
2018-08-22T03:44:52.280Z,2.40
2018-08-22T03:45:52.234Z,3.80
2018-08-22T03:46:52.211Z,3.90
2018-08-22T03:47:52.183Z,3.60
2018-08-22T03:48:52.161Z,1.60
2018-08-22T03:49:52.134Z,2.70
2018-08-22T03:50:52.109Z,1.60
2018-08-22T03:51:52.085Z,1.40
2018-08-22T03:52:52.069Z,1.80
2018-08-22T03:53:52.045Z,3.90
2018-08-22T03:54:52.017Z,1.20
2018-08-22T03:55:51.994Z,1.40
2018-08-22T03:56:51.977Z,2.20
2018-08-22T03:57:51.943Z,1.90
2018-08-22T03:58:51.920Z,1.90
2018-08-22T03:59:51.903Z,2.60
2018-08-22T04:00:51.873Z,2.60
2018-08-22T04:01:51.854Z,2.10
2018-08-22T04:02:51.825Z,1.80
2018-08-22T04:03:51.803Z,3.80
2018-08-22T04:04:51.784Z,1.60
2018-08-22T04:05:51.757Z,3.00
2018-08-22T04:06:51.731Z,1.50
2018-08-22T04:07:51.712Z,2.70
2018-08-22T04:08:51.686Z,1.80
2018-08-22T04:09:51.669Z,2.30
2018-08-22T04:10:51.641Z,1.50
2018-08-22T04:11:51.613Z,3.30
2018-08-22T04:12:51.593Z,2.50
2018-08-22T04:13:51.562Z,2.60
2018-08-22T04:14:51.541Z,1.80
2018-08-22T04:15:51.529Z,1.40
2018-08-22T04:16:51.492Z,3.00
2018-08-22T04:17:51.475Z,3.60
2018-08-22T04:18:51.445Z,1.80
2018-08-22T04:19:51.430Z,2.40
2018-08-22T04:20:51.395Z,3.70
2018-08-22T04:21:51.379Z,1.90
2018-08-22T04:22:51.356Z,1.60
2018-08-22T04:23:51.324Z,1.50
2018-08-22T04:24:51.308Z,2.70
2018-08-22T04:25:51.288Z,6.30
2018-08-22T04:26:51.256Z,2.80
2018-08-22T04:27:51.232Z,1.50
2018-08-22T04:28:51.224Z,1.60
2018-08-22T04:29:51.190Z,2.00
2018-08-22T04:30:51.208Z,2.20
2018-08-22T04:31:51.175Z,3.50
2018-08-22T04:32:51.116Z,2.80
2018-08-22T04:33:51.086Z,3.70
2018-08-22T04:34:51.068Z,2.20
2018-08-22T04:35:51.039Z,1.60
2018-08-22T04:36:51.021Z,1.50
2018-08-22T04:37:50.994Z,3.40
2018-08-22T04:38:50.975Z,1.70
2018-08-22T04:39:50.954Z,1.30
2018-08-22T04:40:50.923Z,1.50
2018-08-22T04:41:50.901Z,1.60
2018-08-22T04:42:50.872Z,1.50
2018-08-22T04:43:50.852Z,1.90
2018-08-22T04:44:50.830Z,1.30
2018-08-22T04:45:50.800Z,1.60
2018-08-22T04:46:50.780Z,3.80
2018-08-22T04:47:50.754Z,3.70
2018-08-22T04:48:50.729Z,3.40
2018-08-22T04:49:50.718Z,2.10
2018-08-22T04:50:50.679Z,2.60
2018-08-22T04:51:50.665Z,1.90
2018-08-22T04:52:50.637Z,1.40
2018-08-22T04:53:50.616Z,2.00
2018-08-22T04:54:50.593Z,2.00
2018-08-22T04:55:50.588Z,1.80
2018-08-22T04:56:50.541Z,3.80
2018-08-22T04:57:50.518Z,1.50
2018-08-22T04:58:50.499Z,3.00
2018-08-22T04:59:50.467Z,2.10
2018-08-22T05:00:50.446Z,1.80
2018-08-22T05:01:50.418Z,2.10
2018-08-22T05:02:50.398Z,2.50
2018-08-22T05:03:50.375Z,1.70
2018-08-22T05:04:50.348Z,2.50
2018-08-22T05:05:50.366Z,1.70
2018-08-22T05:06:50.302Z,2.30
2018-08-22T05:07:50.279Z,3.10
2018-08-22T05:08:50.272Z,1.60
2018-08-22T05:09:50.228Z,3.40
2018-08-22T05:10:50.249Z,1.60
2018-08-22T05:11:50.198Z,3.00
2018-08-22T05:12:50.173Z,3.30
2018-08-22T05:13:50.142Z,1.60
2018-08-22T05:14:50.111Z,2.60
2018-08-22T05:15:50.095Z,1.90
2018-08-22T05:16:50.060Z,2.40
2018-08-22T05:17:50.047Z,1.90
2018-08-22T05:18:50.024Z,2.10
2018-08-22T05:19:49.995Z,4.30
2018-08-22T05:20:49.974Z,5.90
2018-08-22T05:21:49.957Z,1.60
2018-08-22T05:22:49.928Z,1.60
2018-08-22T05:23:49.899Z,2.90
2018-08-22T05:24:49.889Z,2.80
2018-08-22T05:25:49.870Z,4.80
2018-08-22T05:26:49.827Z,1.30
2018-08-22T05:27:49.806Z,1.60
2018-08-22T05:28:50.481Z,1.70
2018-08-22T05:29:49.759Z,3.50
2018-08-22T05:30:49.739Z,2.50
2018-08-22T05:31:49.708Z,3.00
2018-08-22T05:32:49.689Z,3.40
2018-08-22T05:33:49.656Z,1.40
2018-08-22T05:34:49.648Z,1.60
2018-08-22T05:35:49.621Z,4.60
2018-08-22T05:36:49.587Z,1.40
2018-08-22T05:37:49.577Z,2.60
2018-08-22T05:38:49.568Z,2.00
2018-08-22T05:39:49.525Z,1.80
2018-08-22T05:40:49.496Z,1.60
2018-08-22T05:41:49.477Z,3.40
2018-08-22T05:42:49.456Z,2.20
2018-08-22T05:43:49.422Z,1.70
2018-08-22T05:44:49.402Z,2.90
2018-08-22T05:45:49.382Z,3.10
2018-08-22T05:46:49.351Z,2.30
2018-08-22T05:47:49.335Z,2.70
2018-08-22T05:48:49.307Z,1.60
2018-08-22T05:49:49.290Z,2.70
2018-08-22T05:50:49.268Z,1.60
2018-08-22T05:51:49.235Z,2.70
2018-08-22T05:52:49.220Z,3.00
2018-08-22T05:53:49.187Z,2.20
2018-08-22T05:54:49.167Z,3.50
2018-08-22T05:55:49.162Z,1.50
2018-08-22T05:56:49.150Z,2.90
2018-08-22T05:57:49.156Z,4.10
2018-08-22T05:58:49.086Z,4.30
2018-08-22T05:59:49.058Z,3.70
2018-08-22T06:00:49.029Z,2.40
2018-08-22T06:01:49.002Z,2.40
2018-08-22T06:02:48.984Z,1.60
2018-08-22T06:03:48.964Z,3.00
2018-08-22T06:04:48.933Z,2.20
2018-08-22T06:05:49.118Z,1.70
2018-08-22T06:06:48.886Z,1.60
2018-08-22T06:07:48.869Z,3.20
2018-08-22T06:08:48.910Z,1.80
2018-08-22T06:09:48.817Z,1.50
2018-08-22T06:10:48.794Z,1.60
2018-08-22T06:11:48.777Z,1.70
2018-08-22T06:12:48.779Z,1.70
2018-08-22T06:13:48.727Z,2.10
2018-08-22T06:14:48.704Z,1.50
2018-08-22T06:15:48.739Z,5.90
2018-08-22T06:16:48.655Z,2.60
2018-08-22T06:17:48.628Z,2.30
2018-08-22T06:18:48.607Z,2.60
2018-08-22T06:19:48.581Z,1.50
2018-08-22T06:20:48.558Z,3.70
2018-08-22T06:21:48.541Z,2.70
2018-08-22T06:22:48.510Z,2.00
2018-08-22T06:23:48.491Z,2.30
2018-08-22T06:24:48.508Z,4.00
2018-08-22T06:25:48.440Z,3.30
2018-08-22T06:26:48.424Z,2.20
2018-08-22T06:27:48.395Z,3.90
2018-08-22T06:28:48.373Z,3.50
2018-08-22T06:29:48.357Z,5.90
2018-08-22T06:30:48.326Z,1.90
2018-08-22T06:31:48.309Z,2.90
2018-08-22T06:32:48.279Z,2.60
2018-08-22T06:33:48.257Z,3.60
2018-08-22T06:34:48.287Z,2.40
2018-08-22T06:35:48.218Z,1.70
2018-08-22T06:36:48.203Z,1.70
2018-08-22T06:37:48.168Z,4.30
2018-08-22T06:38:48.146Z,2.40
2018-08-22T06:39:48.117Z,3.10
2018-08-22T06:40:48.095Z,2.40
2018-08-22T06:41:48.075Z,4.80
2018-08-22T06:42:48.050Z,3.90
2018-08-22T06:43:48.031Z,3.30
2018-08-22T06:44:48.006Z,3.60
2018-08-22T06:45:47.978Z,1.80
2018-08-22T06:46:47.972Z,2.40
2018-08-22T06:47:47.938Z,2.10
2018-08-22T06:48:47.922Z,5.80
2018-08-22T06:49:47.890Z,3.90
2018-08-22T06:50:47.864Z,7.80
2018-08-22T06:51:47.848Z,2.80
2018-08-22T06:52:47.818Z,3.10
2018-08-22T06:53:47.801Z,2.70
2018-08-22T06:54:47.778Z,1.90
2018-08-22T06:55:47.749Z,2.60
2018-08-22T06:56:47.733Z,4.00
2018-08-22T06:57:47.701Z,1.90
2018-08-22T06:58:47.686Z,3.60
2018-08-22T06:59:47.659Z,2.90
2018-08-22T07:00:47.635Z,5.60
2018-08-22T07:01:47.618Z,3.30
2018-08-22T07:02:47.589Z,2.80
2018-08-22T07:03:47.568Z,4.70
2018-08-22T07:04:47.545Z,3.40
2018-08-22T07:05:47.523Z,4.20
2018-08-22T07:06:47.506Z,1.80
2018-08-22T07:07:47.478Z,2.10
2018-08-22T07:08:47.460Z,2.60
2018-08-22T07:09:47.436Z,1.90
2018-08-22T07:10:47.409Z,2.30
2018-08-22T07:11:47.394Z,2.20
2018-08-22T07:12:47.370Z,2.70
2018-08-22T07:13:47.344Z,14.10
2018-08-22T07:14:47.319Z,4.10
2018-08-22T07:15:47.298Z,1.90
2018-08-22T07:16:47.277Z,1.80
2018-08-22T07:17:47.262Z,2.10
2018-08-22T07:18:47.233Z,3.30
2018-08-22T07:19:47.215Z,1.90
2018-08-22T07:20:47.204Z,2.90
2018-08-22T07:21:47.167Z,2.40
2018-08-22T07:22:47.141Z,1.80
2018-08-22T07:23:47.127Z,6.90
2018-08-22T07:24:47.125Z,4.10
2018-08-22T07:25:47.074Z,3.30
2018-08-22T07:26:47.058Z,7.20
2018-08-22T07:27:47.031Z,3.00
2018-08-22T07:28:47.010Z,23.00
2018-08-22T07:29:46.988Z,8.70
2018-08-22T07:30:46.964Z,2.70
2018-08-22T07:31:46.938Z,2.90
2018-08-22T07:32:46.926Z,3.10
2018-08-22T07:33:46.898Z,3.80
2018-08-22T07:34:46.875Z,4.00
2018-08-22T07:35:46.943Z,3.10
2018-08-22T07:36:46.825Z,14.40
2018-08-22T07:37:46.808Z,16.50
2018-08-22T07:38:46.790Z,4.70
2018-08-22T07:39:46.770Z,5.00
2018-08-22T07:40:46.749Z,3.60
2018-08-22T07:41:46.718Z,3.60
2018-08-22T07:42:46.712Z,3.40
2018-08-22T07:43:46.678Z,2.80
2018-08-22T07:44:46.649Z,2.10
2018-08-22T07:45:46.633Z,4.90
2018-08-22T07:46:46.610Z,10.30
2018-08-22T07:47:46.583Z,13.50
2018-08-22T07:48:46.565Z,3.20
2018-08-22T07:49:46.542Z,11.20
2018-08-22T07:50:46.517Z,2.60
2018-08-22T07:51:46.497Z,2.70
2018-08-22T07:52:46.479Z,7.30
2018-08-22T07:53:46.461Z,6.60
2018-08-22T07:54:46.437Z,44.00
2018-08-22T07:55:46.408Z,32.30
2018-08-22T07:56:46.395Z,23.90
2018-08-22T07:57:46.362Z,25.80
2018-08-22T07:58:46.343Z,35.40
2018-08-22T07:59:46.332Z,21.40
2018-08-22T08:00:46.296Z,37.90
2018-08-22T08:01:46.326Z,32.40
2018-08-22T08:02:46.255Z,23.90
2018-08-22T08:03:46.232Z,44.80
2018-08-22T08:04:46.211Z,40.70
2018-08-22T08:05:46.196Z,37.80
2018-08-22T08:06:46.165Z,12.90
2018-08-22T08:07:46.145Z,22.90
2018-08-22T08:08:46.198Z,18.30
2018-08-22T08:09:46.096Z,5.00
2018-08-22T08:10:46.080Z,3.20
2018-08-22T08:11:46.056Z,157.20
2018-08-22T08:12:46.031Z,117.30
2018-08-22T08:13:46.022Z,165.90
2018-08-22T08:14:46.001Z,85.00
2018-08-22T08:15:45.971Z,6.50
2018-08-22T08:16:45.948Z,10.20
2018-08-22T08:17:45.938Z,7.30
2018-08-22T08:18:45.910Z,4.30
2018-08-22T08:19:45.913Z,5.60
2018-08-22T08:20:45.862Z,2.80
2018-08-22T08:21:45.834Z,2.90
2018-08-22T08:22:45.812Z,3.30
2018-08-22T08:23:45.796Z,5.90
2018-08-22T08:24:45.770Z,2.90
2018-08-22T08:25:45.755Z,3.30
2018-08-22T08:26:45.728Z,2.00
2018-08-22T08:27:45.713Z,1.80
2018-08-22T08:28:45.686Z,2.00
2018-08-22T08:29:45.665Z,5.40
2018-08-22T08:30:45.657Z,19.90
2018-08-22T08:31:45.619Z,12.40
2018-08-22T08:32:45.601Z,11.40
2018-08-22T08:33:45.579Z,20.90
2018-08-22T08:34:45.561Z,6.50
2018-08-22T08:35:45.551Z,5.20
2018-08-22T08:36:45.523Z,2.80
2018-08-22T08:37:45.493Z,8.00
2018-08-22T08:38:45.478Z,14.40
2018-08-22T08:39:45.449Z,6.70
2018-08-22T08:40:45.440Z,6.30
2018-08-22T08:41:45.502Z,3.60
2018-08-22T08:42:45.396Z,5.30
2018-08-22T08:43:45.366Z,1.60
2018-08-22T08:44:45.358Z,2.90
2018-08-22T08:45:45.319Z,2.40
2018-08-22T08:46:45.309Z,2.20
2018-08-22T08:47:45.308Z,3.90
2018-08-22T08:48:45.266Z,2.50
2018-08-22T08:49:45.248Z,2.30
2018-08-22T08:50:45.216Z,4.10
2018-08-22T08:51:45.211Z,1.40
2018-08-22T08:52:45.182Z,1.70
2018-08-22T08:53:45.152Z,1.30
2018-08-22T08:54:45.132Z,1.90
2018-08-22T08:55:45.128Z,4.20
2018-08-22T08:56:45.099Z,2.80
2018-08-22T08:57:45.077Z,3.00
2018-08-22T08:58:45.053Z,3.80
2018-08-22T08:59:45.030Z,1.40
2018-08-22T09:00:45.058Z,2.60
2018-08-22T09:01:44.987Z,2.30
2018-08-22T09:02:44.997Z,2.80
2018-08-22T09:03:44.968Z,4.00
2018-08-22T09:04:44.927Z,2.20
2018-08-22T09:05:44.910Z,2.00
2018-08-22T09:06:44.893Z,1.30
2018-08-22T09:07:44.864Z,4.20
2018-08-22T09:08:44.851Z,1.60
2018-08-22T09:09:44.826Z,1.70
2018-08-22T09:10:44.844Z,5.00
2018-08-22T09:11:44.788Z,4.60
2018-08-22T09:12:44.767Z,3.90
2018-08-22T09:13:44.749Z,2.20
2018-08-22T09:14:44.728Z,1.40
2018-08-22T09:15:44.706Z,1.90
2018-08-22T09:16:44.682Z,1.90
2018-08-22T09:17:44.663Z,1.40
2018-08-22T09:18:44.641Z,4.90
2018-08-22T09:19:44.632Z,1.70
2018-08-22T09:20:44.605Z,2.20
2018-08-22T09:21:44.592Z,1.60
2018-08-22T09:22:44.564Z,1.80
2018-08-22T09:23:44.540Z,2.10
2018-08-22T09:24:44.522Z,1.30
2018-08-22T09:25:44.538Z,2.60
2018-08-22T09:26:44.484Z,2.10
2018-08-22T09:27:44.466Z,2.00
2018-08-22T09:28:44.446Z,1.30
2018-08-22T09:29:44.428Z,5.80
2018-08-22T09:30:44.411Z,2.20
2018-08-22T09:31:44.382Z,4.90
2018-08-22T09:32:44.364Z,2.30
2018-08-22T09:33:44.404Z,2.20
2018-08-22T09:34:44.319Z,2.50
2018-08-22T09:35:44.305Z,2.30
2018-08-22T09:36:44.286Z,2.40
2018-08-22T09:37:44.262Z,1.30
2018-08-22T09:38:44.240Z,2.90
2018-08-22T09:39:44.276Z,1.90
2018-08-22T09:40:44.225Z,2.20
2018-08-22T09:41:44.181Z,1.80
2018-08-22T09:42:44.165Z,1.80
2018-08-22T09:43:44.143Z,1.80
2018-08-22T09:44:44.150Z,1.70
2018-08-22T09:45:44.108Z,3.40
2018-08-22T09:46:44.149Z,2.80
2018-08-22T09:47:44.062Z,1.80
2018-08-22T09:48:44.043Z,2.80
2018-08-22T09:49:44.028Z,1.80
2018-08-22T09:50:44.014Z,1.80
2018-08-22T09:51:43.997Z,1.70
2018-08-22T09:52:43.967Z,2.20
2018-08-22T09:53:43.946Z,1.70
2018-08-22T09:54:43.966Z,1.90
2018-08-22T09:55:43.910Z,3.60
2018-08-22T09:56:43.888Z,5.40
2018-08-22T09:57:43.875Z,2.00
2018-08-22T09:58:43.849Z,3.00
2018-08-22T09:59:43.834Z,3.00
2018-08-22T10:00:43.883Z,5.60
2018-08-22T10:01:43.793Z,3.40
2018-08-22T10:02:43.777Z,1.70
2018-08-22T10:03:43.762Z,1.70
2018-08-22T10:04:43.739Z,1.80
2018-08-22T10:05:43.722Z,1.50
2018-08-22T10:06:43.759Z,1.90
2018-08-22T10:07:43.678Z,1.90
2018-08-22T10:08:43.659Z,2.60
2018-08-22T10:09:43.641Z,2.20
2018-08-22T10:10:43.623Z,2.20
2018-08-22T10:11:43.618Z,1.80
2018-08-22T10:12:43.607Z,2.30
2018-08-22T10:13:43.568Z,2.60
2018-08-22T10:14:43.595Z,2.00
2018-08-22T10:15:43.528Z,3.60
2018-08-22T10:16:43.514Z,1.80
2018-08-22T10:17:43.489Z,2.60
2018-08-22T10:18:43.478Z,2.80
2018-08-22T10:19:43.496Z,7.70
2018-08-22T10:20:43.443Z,2.80
2018-08-22T10:21:43.414Z,4.60
2018-08-22T10:22:43.397Z,3.10
2018-08-22T10:23:43.387Z,1.80
2018-08-22T10:24:43.397Z,3.40
2018-08-22T10:25:43.356Z,2.10
2018-08-22T10:26:43.326Z,3.80
2018-08-22T10:27:43.314Z,4.70
2018-08-22T10:28:43.289Z,3.30
2018-08-22T10:29:43.268Z,2.10
2018-08-22T10:30:43.248Z,2.10
2018-08-22T10:31:43.233Z,1.70
2018-08-22T10:32:43.265Z,2.70
2018-08-22T10:33:43.195Z,2.60
2018-08-22T10:34:43.183Z,3.90
2018-08-22T10:35:43.156Z,4.20
2018-08-22T10:36:43.142Z,3.90
2018-08-22T10:37:43.127Z,2.50
2018-08-22T10:38:43.107Z,2.90
2018-08-22T10:39:43.089Z,3.80
2018-08-22T10:40:43.066Z,2.40
2018-08-22T10:41:43.054Z,4.70
2018-08-22T10:42:43.029Z,4.50
2018-08-22T10:43:43.017Z,2.00
2018-08-22T10:44:42.999Z,3.70
2018-08-22T10:45:42.978Z,3.10
2018-08-22T10:46:42.961Z,4.40
2018-08-22T10:47:42.940Z,2.90
2018-08-22T10:48:42.919Z,2.80
2018-08-22T10:49:42.909Z,2.60
2018-08-22T10:50:42.908Z,1.80
2018-08-22T10:51:42.871Z,2.50
2018-08-22T10:52:42.850Z,2.60
2018-08-22T10:53:42.834Z,2.10
2018-08-22T10:54:42.820Z,2.30
2018-08-22T10:55:42.796Z,4.50
2018-08-22T10:56:42.786Z,3.40
2018-08-22T10:57:42.757Z,4.90
2018-08-22T10:58:42.745Z,1.80
2018-08-22T10:59:42.724Z,1.60
2018-08-22T11:00:42.704Z,2.60
2018-08-22T11:01:42.698Z,3.60
2018-08-22T11:02:42.672Z,2.40
2018-08-22T11:03:42.657Z,2.70
2018-08-22T11:04:42.647Z,1.90
2018-08-22T11:05:42.617Z,2.80
2018-08-22T11:06:42.600Z,2.10
2018-08-22T11:07:42.590Z,3.10
2018-08-22T11:08:42.568Z,2.90
2018-08-22T11:09:42.549Z,3.10
2018-08-22T11:10:42.530Z,2.50
2018-08-22T11:11:42.515Z,2.30
2018-08-22T11:12:42.497Z,4.80
2018-08-22T11:13:42.480Z,2.90
2018-08-22T11:14:42.458Z,2.50
2018-08-22T11:15:42.512Z,3.20
2018-08-22T11:16:42.425Z,3.10
2018-08-22T11:17:42.410Z,3.00
2018-08-22T11:18:42.395Z,2.10
2018-08-22T11:19:42.377Z,2.10
2018-08-22T11:20:42.358Z,2.20
2018-08-22T11:21:42.339Z,2.00
2018-08-22T11:22:42.329Z,1.50
2018-08-22T11:23:42.306Z,3.70
2018-08-22T11:24:42.292Z,2.00
2018-08-22T11:25:42.267Z,3.40
2018-08-22T11:26:42.256Z,2.40
2018-08-22T11:27:42.245Z,2.00
2018-08-22T11:28:42.218Z,6.60
2018-08-22T11:29:42.206Z,2.70
2018-08-22T11:30:42.196Z,4.00
2018-08-22T11:31:42.163Z,4.10
2018-08-22T11:32:42.151Z,2.50
2018-08-22T11:33:42.131Z,2.40
2018-08-22T11:34:42.119Z,2.20
2018-08-22T11:35:42.101Z,3.60
2018-08-22T11:36:42.083Z,3.10
2018-08-22T11:37:42.062Z,2.00
2018-08-22T11:38:42.047Z,2.00
2018-08-22T11:39:42.042Z,2.50
2018-08-22T11:40:42.017Z,3.10
2018-08-22T11:41:42.002Z,4.00
2018-08-22T11:42:41.986Z,2.30
2018-08-22T11:43:41.976Z,2.50
2018-08-22T11:44:41.963Z,2.00
2018-08-22T11:45:41.927Z,3.70
2018-08-22T11:46:41.940Z,2.30
2018-08-22T11:47:41.905Z,2.70
2018-08-22T11:48:41.883Z,2.00
2018-08-22T11:49:41.866Z,5.20
2018-08-22T11:50:41.845Z,2.10
2018-08-22T11:51:41.836Z,2.60
2018-08-22T11:52:41.825Z,4.80
2018-08-22T11:53:41.797Z,3.10
2018-08-22T11:54:41.786Z,2.40
2018-08-22T11:55:41.770Z,2.90
2018-08-22T11:56:41.755Z,2.30
2018-08-22T11:57:41.731Z,2.90
2018-08-22T11:58:41.721Z,3.90
2018-08-22T11:59:41.709Z,1.70
2018-08-22T12:00:41.688Z,3.00
2018-08-22T12:01:41.672Z,4.70
2018-08-22T12:02:41.649Z,2.90
2018-08-22T12:03:41.641Z,4.60
2018-08-22T12:04:41.621Z,4.20
2018-08-22T12:05:41.604Z,2.80
2018-08-22T12:06:41.593Z,2.50
2018-08-22T12:07:41.567Z,2.60
2018-08-22T12:08:41.552Z,1.50
2018-08-22T12:09:41.540Z,1.90
2018-08-22T12:10:41.575Z,5.20
2018-08-22T12:11:41.503Z,2.00
2018-08-22T12:12:41.493Z,2.10
2018-08-22T12:13:41.481Z,2.00
2018-08-22T12:14:41.467Z,3.20
2018-08-22T12:15:41.434Z,4.10
2018-08-22T12:16:41.421Z,3.20
2018-08-22T12:17:41.408Z,3.30
2018-08-22T12:18:41.403Z,4.60
2018-08-22T12:19:41.378Z,8.60
2018-08-22T12:20:41.358Z,2.70
2018-08-22T12:21:41.345Z,2.60
2018-08-22T12:22:41.330Z,2.90
2018-08-22T12:23:41.307Z,3.20
2018-08-22T12:24:41.293Z,4.50
2018-08-22T12:25:41.273Z,6.00
2018-08-22T12:26:41.273Z,4.50
2018-08-22T12:27:41.244Z,3.50
2018-08-22T12:28:41.262Z,3.40
2018-08-22T12:29:41.209Z,3.50
2018-08-22T12:30:41.241Z,2.30
2018-08-22T12:31:41.180Z,2.70
2018-08-22T12:32:41.163Z,2.30
2018-08-22T12:33:41.145Z,2.10
2018-08-22T12:34:41.128Z,3.50
2018-08-22T12:35:41.110Z,2.80
2018-08-22T12:36:41.090Z,4.30
2018-08-22T12:37:41.135Z,4.70
2018-08-22T12:38:41.064Z,2.80
2018-08-22T12:39:41.043Z,2.90
2018-08-22T12:40:41.035Z,2.50
2018-08-22T12:41:41.005Z,2.40
2018-08-22T12:42:40.995Z,4.00
2018-08-22T12:43:40.976Z,2.50
2018-08-22T12:44:40.961Z,3.60
2018-08-22T12:45:40.942Z,3.90
2018-08-22T12:46:40.925Z,2.90
2018-08-22T12:47:40.908Z,2.20
2018-08-22T12:48:40.906Z,2.30
2018-08-22T12:49:40.875Z,3.00
2018-08-22T12:50:40.865Z,2.50
2018-08-22T12:51:40.842Z,2.50
2018-08-22T12:52:40.826Z,2.40
2018-08-22T12:53:40.817Z,2.20
2018-08-22T12:54:40.839Z,1.90
2018-08-22T12:55:40.782Z,3.10
2018-08-22T12:56:40.764Z,1.80
2018-08-22T12:57:40.749Z,3.90
2018-08-22T12:58:40.732Z,3.40
2018-08-22T12:59:40.710Z,3.00
2018-08-22T13:00:40.695Z,3.40
2018-08-22T13:01:40.686Z,3.70
2018-08-22T13:02:40.660Z,3.10
2018-08-22T13:03:40.664Z,2.60
2018-08-22T13:04:40.649Z,3.30
2018-08-22T13:05:40.613Z,3.10
2018-08-22T13:06:40.593Z,2.40
2018-08-22T13:07:40.584Z,3.00
2018-08-22T13:08:40.568Z,2.50
2018-08-22T13:09:40.544Z,2.20
2018-08-22T13:10:40.535Z,2.80
2018-08-22T13:11:40.513Z,5.00
2018-08-22T13:12:40.496Z,3.60
2018-08-22T13:13:40.484Z,4.60
2018-08-22T13:14:40.469Z,2.30
2018-08-22T13:15:40.452Z,2.10
2018-08-22T13:16:40.439Z,2.00